sensor_id;sensor_type;location;lat;lon;timestamp;temperature;humidity
22974;DHT22;11653;50.848;4.584;2023-04-15T00:01:22;10.30;99.90
22974;DHT22;11653;50.848;4.584;2023-04-15T00:03:55;10.40;99.90
22974;DHT22;11653;50.848;4.584;2023-04-15T00:06:21;10.50;99.90
22974;DHT22;11653;50.848;4.584;2023-04-15T00:08:47;10.40;99.90
22974;DHT22;11653;50.848;4.584;2023-04-15T00:11:19;10.50;99.90
22974;DHT22;11653;50.848;4.584;2023-04-15T00:13:45;10.50;99.90
22974;DHT22;11653;50.848;4.584;2023-04-15T00:16:11;10.50;99.90
22974;DHT22;11653;50.848;4.584;2023-04-15T00:18:37;10.50;99.90
22974;DHT22;11653;50.848;4.584;2023-04-15T00:21:03;10.50;99.90
22974;DHT22;11653;50.848;4.584;2023-04-15T00:23:29;10.40;99.90
22974;DHT22;11653;50.848;4.584;2023-04-15T00:25:55;10.50;99.90
22974;DHT22;11653;50.848;4.584;2023-04-15T00:28:23;10.50;99.90
22974;DHT22;11653;50.848;4.584;2023-04-15T00:30:49;10.50;99.90
22974;DHT22;11653;50.848;4.584;2023-04-15T00:33:15;10.40;99.90
22974;DHT22;11653;50.848;4.584;2023-04-15T00:35:45;10.40;99.90
22974;DHT22;11653;50.848;4.584;2023-04-15T00:38:10;10.30;99.90
22974;DHT22;11653;50.848;4.584;2023-04-15T00:40:37;10.20;99.90
22974;DHT22;11653;50.848;4.584;2023-04-15T00:43:02;10.20;99.90
22974;DHT22;11653;50.848;4.584;2023-04-15T00:45:28;10.20;99.90
22974;DHT22;11653;50.848;4.584;2023-04-15T00:47:55;10.30;99.90
22974;DHT22;11653;50.848;4.584;2023-04-15T00:50:21;10.30;99.90
22974;DHT22;11653;50.848;4.584;2023-04-15T00:52:47;10.30;99.90
22974;DHT22;11653;50.848;4.584;2023-04-15T00:55:12;10.30;99.90
22974;DHT22;11653;50.848;4.584;2023-04-15T00:57:39;10.40;99.90
22974;DHT22;11653;50.848;4.584;2023-04-15T01:00:05;10.40;99.90
22974;DHT22;11653;50.848;4.584;2023-04-15T01:02:34;10.40;99.90
22974;DHT22;11653;50.848;4.584;2023-04-15T01:05:00;10.50;99.90
22974;DHT22;11653;50.848;4.584;2023-04-15T01:07:25;10.50;99.90
22974;DHT22;11653;50.848;4.584;2023-04-15T01:09:51;10.50;99.90
22974;DHT22;11653;50.848;4.584;2023-04-15T01:12:18;10.40;99.90
22974;DHT22;11653;50.848;4.584;2023-04-15T01:14:45;10.40;99.90
22974;DHT22;11653;50.848;4.584;2023-04-15T01:17:11;10.40;99.90
22974;DHT22;11653;50.848;4.584;2023-04-15T01:19:37;10.40;99.90
22974;DHT22;11653;50.848;4.584;2023-04-15T01:22:03;10.40;99.90
22974;DHT22;11653;50.848;4.584;2023-04-15T01:24:30;10.40;99.90
22974;DHT22;11653;50.848;4.584;2023-04-15T01:26:56;10.50;99.90
22974;DHT22;11653;50.848;4.584;2023-04-15T01:29:22;10.50;99.90
22974;DHT22;11653;50.848;4.584;2023-04-15T01:31:52;10.50;99.90
22974;DHT22;11653;50.848;4.584;2023-04-15T01:34:18;10.50;99.90
22974;DHT22;11653;50.848;4.584;2023-04-15T01:36:44;10.40;99.90
22974;DHT22;11653;50.848;4.584;2023-04-15T01:39:09;10.40;99.90
22974;DHT22;11653;50.848;4.584;2023-04-15T01:41:35;10.40;99.90
22974;DHT22;11653;50.848;4.584;2023-04-15T01:44:01;10.50;99.90
22974;DHT22;11653;50.848;4.584;2023-04-15T01:46:26;10.60;99.90
22974;DHT22;11653;50.848;4.584;2023-04-15T01:48:52;10.70;99.90
22974;DHT22;11653;50.848;4.584;2023-04-15T01:51:18;10.60;99.90
22974;DHT22;11653;50.848;4.584;2023-04-15T01:53:43;10.50;99.90
22974;DHT22;11653;50.848;4.584;2023-04-15T01:56:09;10.40;99.90
22974;DHT22;11653;50.848;4.584;2023-04-15T01:58:35;10.30;99.90
22974;DHT22;11653;50.848;4.584;2023-04-15T02:01:01;10.30;99.90
22974;DHT22;11653;50.848;4.584;2023-04-15T02:03:28;10.60;99.90
22974;DHT22;11653;50.848;4.584;2023-04-15T02:05:54;10.70;99.90
22974;DHT22;11653;50.848;4.584;2023-04-15T02:08:20;10.60;99.90
22974;DHT22;11653;50.848;4.584;2023-04-15T02:10:45;10.50;99.90
22974;DHT22;11653;50.848;4.584;2023-04-15T02:13:11;10.40;99.90
22974;DHT22;11653;50.848;4.584;2023-04-15T02:15:38;10.00;99.90
22974;DHT22;11653;50.848;4.584;2023-04-15T02:18:04;9.70;99.90
22974;DHT22;11653;50.848;4.584;2023-04-15T02:20:29;9.80;99.90
22974;DHT22;11653;50.848;4.584;2023-04-15T02:22:55;10.00;99.90
22974;DHT22;11653;50.848;4.584;2023-04-15T02:25:21;10.20;99.90
22974;DHT22;11653;50.848;4.584;2023-04-15T02:27:47;10.40;99.90
22974;DHT22;11653;50.848;4.584;2023-04-15T02:30:13;10.60;99.90
22974;DHT22;11653;50.848;4.584;2023-04-15T02:32:39;10.60;99.90
22974;DHT22;11653;50.848;4.584;2023-04-15T02:35:08;10.60;99.90
22974;DHT22;11653;50.848;4.584;2023-04-15T02:37:35;10.50;99.90
22974;DHT22;11653;50.848;4.584;2023-04-15T02:40:07;10.50;99.90
22974;DHT22;11653;50.848;4.584;2023-04-15T02:42:33;10.60;99.90
22974;DHT22;11653;50.848;4.584;2023-04-15T02:44:59;10.60;99.90
22974;DHT22;11653;50.848;4.584;2023-04-15T02:47:25;10.50;99.90
22974;DHT22;11653;50.848;4.584;2023-04-15T02:49:51;10.50;99.90
22974;DHT22;11653;50.848;4.584;2023-04-15T02:52:17;10.50;99.90
22974;DHT22;11653;50.848;4.584;2023-04-15T02:54:42;10.60;99.90
22974;DHT22;11653;50.848;4.584;2023-04-15T02:57:08;10.50;99.90
22974;DHT22;11653;50.848;4.584;2023-04-15T02:59:36;10.60;99.90
22974;DHT22;11653;50.848;4.584;2023-04-15T03:02:01;10.60;99.90
22974;DHT22;11653;50.848;4.584;2023-04-15T03:04:27;10.70;99.90
22974;DHT22;11653;50.848;4.584;2023-04-15T03:06:54;10.70;99.90
22974;DHT22;11653;50.848;4.584;2023-04-15T03:09:21;10.70;99.90
22974;DHT22;11653;50.848;4.584;2023-04-15T03:11:46;10.80;99.90
22974;DHT22;11653;50.848;4.584;2023-04-15T03:14:12;10.90;99.90
22974;DHT22;11653;50.848;4.584;2023-04-15T03:16:38;10.90;99.90
22974;DHT22;11653;50.848;4.584;2023-04-15T03:19:03;10.90;99.90
22974;DHT22;11653;50.848;4.584;2023-04-15T03:21:29;10.90;99.90
22974;DHT22;11653;50.848;4.584;2023-04-15T03:23:55;10.90;99.90
22974;DHT22;11653;50.848;4.584;2023-04-15T03:26:28;11.00;99.90
22974;DHT22;11653;50.848;4.584;2023-04-15T03:28:54;10.90;99.90
22974;DHT22;11653;50.848;4.584;2023-04-15T03:31:20;10.70;99.90
22974;DHT22;11653;50.848;4.584;2023-04-15T03:33:46;10.70;99.90
22974;DHT22;11653;50.848;4.584;2023-04-15T03:36:11;10.70;99.90
22974;DHT22;11653;50.848;4.584;2023-04-15T03:38:37;10.80;99.90
22974;DHT22;11653;50.848;4.584;2023-04-15T03:41:02;10.90;99.90
22974;DHT22;11653;50.848;4.584;2023-04-15T03:43:28;11.00;99.90
22974;DHT22;11653;50.848;4.584;2023-04-15T03:45:54;11.00;99.90
22974;DHT22;11653;50.848;4.584;2023-04-15T03:48:19;10.90;99.90
22974;DHT22;11653;50.848;4.584;2023-04-15T03:50:45;10.90;99.90
22974;DHT22;11653;50.848;4.584;2023-04-15T03:53:11;10.80;99.90
22974;DHT22;11653;50.848;4.584;2023-04-15T03:55:37;10.70;99.90
22974;DHT22;11653;50.848;4.584;2023-04-15T03:58:02;10.90;99.90
22974;DHT22;11653;50.848;4.584;2023-04-15T04:00:28;10.80;99.90
22974;DHT22;11653;50.848;4.584;2023-04-15T04:02:54;10.70;99.90
22974;DHT22;11653;50.848;4.584;2023-04-15T04:05:19;10.70;99.90
22974;DHT22;11653;50.848;4.584;2023-04-15T04:07:45;10.90;99.90
22974;DHT22;11653;50.848;4.584;2023-04-15T04:10:11;10.90;99.90
22974;DHT22;11653;50.848;4.584;2023-04-15T04:12:37;10.90;99.90
22974;DHT22;11653;50.848;4.584;2023-04-15T04:15:03;10.80;99.90
22974;DHT22;11653;50.848;4.584;2023-04-15T04:17:29;10.80;99.90
22974;DHT22;11653;50.848;4.584;2023-04-15T04:19:54;10.80;99.90
22974;DHT22;11653;50.848;4.584;2023-04-15T04:22:23;10.80;99.90
22974;DHT22;11653;50.848;4.584;2023-04-15T04:24:49;10.90;99.90
22974;DHT22;11653;50.848;4.584;2023-04-15T04:27:15;10.80;99.90
22974;DHT22;11653;50.848;4.584;2023-04-15T04:29:40;10.70;99.90
22974;DHT22;11653;50.848;4.584;2023-04-15T04:32:06;10.70;99.90
22974;DHT22;11653;50.848;4.584;2023-04-15T04:34:32;10.70;99.90
22974;DHT22;11653;50.848;4.584;2023-04-15T04:36:58;10.60;99.90
22974;DHT22;11653;50.848;4.584;2023-04-15T04:39:24;10.60;99.90
22974;DHT22;11653;50.848;4.584;2023-04-15T04:41:50;10.60;99.90
22974;DHT22;11653;50.848;4.584;2023-04-15T04:44:17;10.70;99.90
22974;DHT22;11653;50.848;4.584;2023-04-15T04:46:42;10.70;99.90
22974;DHT22;11653;50.848;4.584;2023-04-15T04:49:08;10.80;99.90
22974;DHT22;11653;50.848;4.584;2023-04-15T04:51:34;10.70;99.90
22974;DHT22;11653;50.848;4.584;2023-04-15T04:54:00;10.80;99.90
22974;DHT22;11653;50.848;4.584;2023-04-15T04:56:25;10.80;99.90
22974;DHT22;11653;50.848;4.584;2023-04-15T04:58:51;10.90;99.90
22974;DHT22;11653;50.848;4.584;2023-04-15T05:01:17;10.80;99.90
22974;DHT22;11653;50.848;4.584;2023-04-15T05:03:43;10.70;99.90
22974;DHT22;11653;50.848;4.584;2023-04-15T05:06:09;10.40;99.90
22974;DHT22;11653;50.848;4.584;2023-04-15T05:08:35;10.40;99.90
22974;DHT22;11653;50.848;4.584;2023-04-15T05:11:01;10.50;99.90
22974;DHT22;11653;50.848;4.584;2023-04-15T05:13:27;10.60;99.90
22974;DHT22;11653;50.848;4.584;2023-04-15T05:15:54;10.60;99.90
22974;DHT22;11653;50.848;4.584;2023-04-15T05:18:20;10.50;99.90
22974;DHT22;11653;50.848;4.584;2023-04-15T05:20:46;10.50;99.90
22974;DHT22;11653;50.848;4.584;2023-04-15T05:23:11;10.60;99.90
22974;DHT22;11653;50.848;4.584;2023-04-15T05:25:37;10.50;99.90
22974;DHT22;11653;50.848;4.584;2023-04-15T05:28:03;10.40;99.90
22974;DHT22;11653;50.848;4.584;2023-04-15T05:30:29;10.30;99.90
22974;DHT22;11653;50.848;4.584;2023-04-15T05:32:54;10.50;99.90
22974;DHT22;11653;50.848;4.584;2023-04-15T05:35:20;10.60;99.90
22974;DHT22;11653;50.848;4.584;2023-04-15T05:37:46;10.60;99.90
22974;DHT22;11653;50.848;4.584;2023-04-15T05:40:12;10.60;99.90
22974;DHT22;11653;50.848;4.584;2023-04-15T05:42:38;10.50;99.90
22974;DHT22;11653;50.848;4.584;2023-04-15T05:45:04;10.30;99.90
22974;DHT22;11653;50.848;4.584;2023-04-15T05:47:30;10.10;99.90
22974;DHT22;11653;50.848;4.584;2023-04-15T05:49:56;10.10;99.90
22974;DHT22;11653;50.848;4.584;2023-04-15T05:52:23;10.30;99.90
22974;DHT22;11653;50.848;4.584;2023-04-15T05:54:49;10.50;99.90
22974;DHT22;11653;50.848;4.584;2023-04-15T05:57:15;10.40;99.90
22974;DHT22;11653;50.848;4.584;2023-04-15T05:59:41;10.50;99.90
22974;DHT22;11653;50.848;4.584;2023-04-15T06:02:08;10.60;99.90
22974;DHT22;11653;50.848;4.584;2023-04-15T06:04:37;10.70;99.90
22974;DHT22;11653;50.848;4.584;2023-04-15T06:07:03;10.70;99.90
22974;DHT22;11653;50.848;4.584;2023-04-15T06:09:29;10.60;99.90
22974;DHT22;11653;50.848;4.584;2023-04-15T06:11:55;10.60;99.90
22974;DHT22;11653;50.848;4.584;2023-04-15T06:14:22;10.80;99.90
22974;DHT22;11653;50.848;4.584;2023-04-15T06:16:47;10.70;99.90
22974;DHT22;11653;50.848;4.584;2023-04-15T06:19:13;10.80;99.90
22974;DHT22;11653;50.848;4.584;2023-04-15T06:21:39;10.90;99.90
22974;DHT22;11653;50.848;4.584;2023-04-15T06:24:05;10.90;99.90
22974;DHT22;11653;50.848;4.584;2023-04-15T06:26:30;11.10;99.90
22974;DHT22;11653;50.848;4.584;2023-04-15T06:28:56;11.30;99.90
22974;DHT22;11653;50.848;4.584;2023-04-15T06:31:22;11.40;99.90
22974;DHT22;11653;50.848;4.584;2023-04-15T06:33:47;11.60;99.90
22974;DHT22;11653;50.848;4.584;2023-04-15T06:36:13;11.50;99.90
22974;DHT22;11653;50.848;4.584;2023-04-15T06:38:39;11.40;99.90
22974;DHT22;11653;50.848;4.584;2023-04-15T06:41:05;11.50;99.90
22974;DHT22;11653;50.848;4.584;2023-04-15T06:43:31;11.60;99.90
22974;DHT22;11653;50.848;4.584;2023-04-15T06:45:56;11.90;99.90
22974;DHT22;11653;50.848;4.584;2023-04-15T06:48:23;12.00;99.90
22974;DHT22;11653;50.848;4.584;2023-04-15T06:50:49;12.10;99.90
22974;DHT22;11653;50.848;4.584;2023-04-15T06:53:15;12.40;99.90
22974;DHT22;11653;50.848;4.584;2023-04-15T06:55:41;12.70;99.90
22974;DHT22;11653;50.848;4.584;2023-04-15T06:58:06;13.00;99.90
22974;DHT22;11653;50.848;4.584;2023-04-15T07:00:32;13.30;99.90
22974;DHT22;11653;50.848;4.584;2023-04-15T07:02:59;13.50;99.90
22974;DHT22;11653;50.848;4.584;2023-04-15T07:05:28;13.60;99.90
22974;DHT22;11653;50.848;4.584;2023-04-15T07:07:54;13.70;99.90
22974;DHT22;11653;50.848;4.584;2023-04-15T07:10:20;14.10;99.90
22974;DHT22;11653;50.848;4.584;2023-04-15T07:12:46;14.60;99.90
22974;DHT22;11653;50.848;4.584;2023-04-15T07:15:12;15.20;99.90
22974;DHT22;11653;50.848;4.584;2023-04-15T07:17:38;15.70;99.90
22974;DHT22;11653;50.848;4.584;2023-04-15T07:20:04;16.40;99.90
22974;DHT22;11653;50.848;4.584;2023-04-15T07:22:30;17.00;99.90
22974;DHT22;11653;50.848;4.584;2023-04-15T07:24:55;17.50;99.90
22974;DHT22;11653;50.848;4.584;2023-04-15T07:27:21;18.10;99.90
22974;DHT22;11653;50.848;4.584;2023-04-15T07:29:47;18.30;99.10
22974;DHT22;11653;50.848;4.584;2023-04-15T07:32:13;18.90;97.90
22974;DHT22;11653;50.848;4.584;2023-04-15T07:34:39;19.50;96.40
22974;DHT22;11653;50.848;4.584;2023-04-15T07:37:05;19.70;94.20
22974;DHT22;11653;50.848;4.584;2023-04-15T07:39:31;19.10;94.30
22974;DHT22;11653;50.848;4.584;2023-04-15T07:41:57;18.50;94.90
22974;DHT22;11653;50.848;4.584;2023-04-15T07:44:24;18.10;95.80
22974;DHT22;11653;50.848;4.584;2023-04-15T07:46:49;17.90;96.20
22974;DHT22;11653;50.848;4.584;2023-04-15T07:49:15;18.10;96.70
22974;DHT22;11653;50.848;4.584;2023-04-15T07:51:41;18.50;95.80
22974;DHT22;11653;50.848;4.584;2023-04-15T07:54:07;18.80;94.90
22974;DHT22;11653;50.848;4.584;2023-04-15T07:56:33;18.90;93.10
22974;DHT22;11653;50.848;4.584;2023-04-15T07:58:58;18.20;94.10
22974;DHT22;11653;50.848;4.584;2023-04-15T08:01:26;17.80;95.30
22974;DHT22;11653;50.848;4.584;2023-04-15T08:03:52;17.70;96.20
22974;DHT22;11653;50.848;4.584;2023-04-15T08:06:17;17.80;95.70
22974;DHT22;11653;50.848;4.584;2023-04-15T08:08:43;18.00;95.50
22974;DHT22;11653;50.848;4.584;2023-04-15T08:11:09;18.10;96.10
22974;DHT22;11653;50.848;4.584;2023-04-15T08:13:35;18.30;95.10
22974;DHT22;11653;50.848;4.584;2023-04-15T08:18:42;19.50;94.00
22974;DHT22;11653;50.848;4.584;2023-04-15T08:21:08;20.10;92.90
22974;DHT22;11653;50.848;4.584;2023-04-15T08:23:34;20.80;91.40
22974;DHT22;11653;50.848;4.584;2023-04-15T08:26:00;21.80;90.20
22974;DHT22;11653;50.848;4.584;2023-04-15T08:28:26;22.80;87.80
22974;DHT22;11653;50.848;4.584;2023-04-15T08:30:54;23.90;84.10
22974;DHT22;11653;50.848;4.584;2023-04-15T08:33:20;24.90;78.40
22974;DHT22;11653;50.848;4.584;2023-04-15T08:35:47;25.70;73.20
22974;DHT22;11653;50.848;4.584;2023-04-15T08:38:12;26.40;69.60
22974;DHT22;11653;50.848;4.584;2023-04-15T08:40:45;26.50;67.10
22974;DHT22;11653;50.848;4.584;2023-04-15T08:43:34;26.90;65.00
22974;DHT22;11653;50.848;4.584;2023-04-15T08:46:00;27.30;60.80
22974;DHT22;11653;50.848;4.584;2023-04-15T08:48:28;27.40;58.60
22974;DHT22;11653;50.848;4.584;2023-04-15T08:50:57;27.30;57.00
22974;DHT22;11653;50.848;4.584;2023-04-15T08:53:23;27.40;56.00
22974;DHT22;11653;50.848;4.584;2023-04-15T08:55:51;26.80;56.30
22974;DHT22;11653;50.848;4.584;2023-04-15T08:58:18;26.30;56.30
22974;DHT22;11653;50.848;4.584;2023-04-15T09:00:44;26.30;55.10
22974;DHT22;11653;50.848;4.584;2023-04-15T09:03:10;26.50;56.30
22974;DHT22;11653;50.848;4.584;2023-04-15T09:05:36;26.90;55.80
22974;DHT22;11653;50.848;4.584;2023-04-15T09:08:03;26.40;53.50
22974;DHT22;11653;50.848;4.584;2023-04-15T09:10:30;25.50;55.40
22974;DHT22;11653;50.848;4.584;2023-04-15T09:12:56;23.50;59.10
22974;DHT22;11653;50.848;4.584;2023-04-15T09:15:24;23.70;58.90
22974;DHT22;11653;50.848;4.584;2023-04-15T09:17:50;23.50;58.50
22974;DHT22;11653;50.848;4.584;2023-04-15T09:20:16;22.60;59.30
22974;DHT22;11653;50.848;4.584;2023-04-15T09:22:47;22.00;61.50
22974;DHT22;11653;50.848;4.584;2023-04-15T09:27:52;21.70;63.60
22974;DHT22;11653;50.848;4.584;2023-04-15T09:30:18;21.70;65.30
22974;DHT22;11653;50.848;4.584;2023-04-15T09:32:52;22.00;63.80
22974;DHT22;11653;50.848;4.584;2023-04-15T09:35:19;22.20;64.20
22974;DHT22;11653;50.848;4.584;2023-04-15T09:37:45;21.70;61.50
22974;DHT22;11653;50.848;4.584;2023-04-15T09:40:12;20.40;66.20
22974;DHT22;11653;50.848;4.584;2023-04-15T09:42:54;20.70;68.50
22974;DHT22;11653;50.848;4.584;2023-04-15T09:45:21;21.30;66.20
22974;DHT22;11653;50.848;4.584;2023-04-15T09:47:46;21.90;63.90
22974;DHT22;11653;50.848;4.584;2023-04-15T09:50:12;22.40;63.40
22974;DHT22;11653;50.848;4.584;2023-04-15T09:52:43;21.70;62.50
22974;DHT22;11653;50.848;4.584;2023-04-15T09:55:09;21.20;62.40
22974;DHT22;11653;50.848;4.584;2023-04-15T09:57:36;21.00;63.60
22974;DHT22;11653;50.848;4.584;2023-04-15T10:00:07;21.20;66.30
22974;DHT22;11653;50.848;4.584;2023-04-15T10:02:33;21.20;64.10
22974;DHT22;11653;50.848;4.584;2023-04-15T10:05:01;20.50;65.00
22974;DHT22;11653;50.848;4.584;2023-04-15T10:07:27;21.10;65.90
22974;DHT22;11653;50.848;4.584;2023-04-15T10:09:54;20.60;67.50
22974;DHT22;11653;50.848;4.584;2023-04-15T10:12:21;20.70;65.40
22974;DHT22;11653;50.848;4.584;2023-04-15T10:14:51;20.40;64.80
22974;DHT22;11653;50.848;4.584;2023-04-15T10:17:21;20.60;65.00
22974;DHT22;11653;50.848;4.584;2023-04-15T10:19:48;20.90;63.90
22974;DHT22;11653;50.848;4.584;2023-04-15T10:22:15;20.30;64.40
22974;DHT22;11653;50.848;4.584;2023-04-15T10:24:42;20.50;65.60
22974;DHT22;11653;50.848;4.584;2023-04-15T10:27:09;21.20;64.20
22974;DHT22;11653;50.848;4.584;2023-04-15T10:29:36;21.70;66.00
22974;DHT22;11653;50.848;4.584;2023-04-15T10:32:02;22.10;63.70
22974;DHT22;11653;50.848;4.584;2023-04-15T10:34:29;22.40;62.10
22974;DHT22;11653;50.848;4.584;2023-04-15T10:37:08;22.90;63.60
22974;DHT22;11653;50.848;4.584;2023-04-15T10:42:10;24.20;56.60
22974;DHT22;11653;50.848;4.584;2023-04-15T10:44:44;24.60;54.50
22974;DHT22;11653;50.848;4.584;2023-04-15T10:47:12;24.20;53.90
22974;DHT22;11653;50.848;4.584;2023-04-15T10:50:04;23.30;53.80
22974;DHT22;11653;50.848;4.584;2023-04-15T10:52:30;23.90;53.80
22974;DHT22;11653;50.848;4.584;2023-04-15T10:55:24;24.30;51.10
22974;DHT22;11653;50.848;4.584;2023-04-15T10:57:52;24.70;51.10
22974;DHT22;11653;50.848;4.584;2023-04-15T11:00:19;25.10;52.90
22974;DHT22;11653;50.848;4.584;2023-04-15T11:02:54;25.40;51.90
22974;DHT22;11653;50.848;4.584;2023-04-15T11:05:22;26.10;52.20
22974;DHT22;11653;50.848;4.584;2023-04-15T11:07:53;25.50;51.40
22974;DHT22;11653;50.848;4.584;2023-04-15T11:12:57;24.90;48.80
22974;DHT22;11653;50.848;4.584;2023-04-15T11:15:42;25.40;49.50
22974;DHT22;11653;50.848;4.584;2023-04-15T11:21:03;27.20;49.80
22974;DHT22;11653;50.848;4.584;2023-04-15T11:23:37;27.20;47.20
22974;DHT22;11653;50.848;4.584;2023-04-15T11:26:08;27.70;46.60
22974;DHT22;11653;50.848;4.584;2023-04-15T11:28:37;27.00;42.20
22974;DHT22;11653;50.848;4.584;2023-04-15T11:31:07;26.50;43.00
22974;DHT22;11653;50.848;4.584;2023-04-15T11:33:35;26.20;43.20
22974;DHT22;11653;50.848;4.584;2023-04-15T11:36:01;25.70;44.20
22974;DHT22;11653;50.848;4.584;2023-04-15T11:38:26;25.80;44.50
22974;DHT22;11653;50.848;4.584;2023-04-15T11:40:52;26.60;43.30
22974;DHT22;11653;50.848;4.584;2023-04-15T11:43:20;27.60;43.40
22974;DHT22;11653;50.848;4.584;2023-04-15T11:45:57;28.00;41.00
22974;DHT22;11653;50.848;4.584;2023-04-15T11:48:29;27.80;41.80
22974;DHT22;11653;50.848;4.584;2023-04-15T11:50:58;27.50;43.90
22974;DHT22;11653;50.848;4.584;2023-04-15T11:53:44;27.70;42.30
22974;DHT22;11653;50.848;4.584;2023-04-15T11:56:17;28.10;43.90
22974;DHT22;11653;50.848;4.584;2023-04-15T11:58:43;29.20;43.40
22974;DHT22;11653;50.848;4.584;2023-04-15T12:01:10;29.80;41.90
22974;DHT22;11653;50.848;4.584;2023-04-15T12:03:41;29.50;40.60
22974;DHT22;11653;50.848;4.584;2023-04-15T12:09:08;28.60;39.50
22974;DHT22;11653;50.848;4.584;2023-04-15T12:11:47;29.10;37.90
22974;DHT22;11653;50.848;4.584;2023-04-15T12:14:19;28.60;37.40
22974;DHT22;11653;50.848;4.584;2023-04-15T12:16:47;28.80;38.50
22974;DHT22;11653;50.848;4.584;2023-04-15T12:19:26;28.20;37.80
22974;DHT22;11653;50.848;4.584;2023-04-15T12:22:03;27.30;40.10
22974;DHT22;11653;50.848;4.584;2023-04-15T12:24:34;26.60;40.00
22974;DHT22;11653;50.848;4.584;2023-04-15T12:27:10;25.40;42.50
22974;DHT22;11653;50.848;4.584;2023-04-15T12:29:37;24.30;44.40
22974;DHT22;11653;50.848;4.584;2023-04-15T12:34:40;23.10;46.30
22974;DHT22;11653;50.848;4.584;2023-04-15T12:37:08;22.30;48.00
22974;DHT22;11653;50.848;4.584;2023-04-15T12:39:38;21.00;49.50
22974;DHT22;11653;50.848;4.584;2023-04-15T12:42:06;20.40;49.70
22974;DHT22;11653;50.848;4.584;2023-04-15T12:44:33;20.10;48.70
22974;DHT22;11653;50.848;4.584;2023-04-15T12:46:59;20.10;47.90
22974;DHT22;11653;50.848;4.584;2023-04-15T12:49:25;19.90;49.60
22974;DHT22;11653;50.848;4.584;2023-04-15T12:51:53;19.60;49.10
22974;DHT22;11653;50.848;4.584;2023-04-15T12:54:20;19.40;49.10
22974;DHT22;11653;50.848;4.584;2023-04-15T12:56:47;19.10;50.50
22974;DHT22;11653;50.848;4.584;2023-04-15T12:59:13;19.10;52.10
22974;DHT22;11653;50.848;4.584;2023-04-15T13:01:39;19.50;54.30
22974;DHT22;11653;50.848;4.584;2023-04-15T13:04:05;19.80;53.00
22974;DHT22;11653;50.848;4.584;2023-04-15T13:06:31;19.80;53.80
22974;DHT22;11653;50.848;4.584;2023-04-15T13:09:01;19.50;55.80
22974;DHT22;11653;50.848;4.584;2023-04-15T13:11:29;19.10;54.20
22974;DHT22;11653;50.848;4.584;2023-04-15T13:14:03;18.90;56.30
22974;DHT22;11653;50.848;4.584;2023-04-15T13:16:29;19.20;56.40
22974;DHT22;11653;50.848;4.584;2023-04-15T13:18:56;19.40;54.80
22974;DHT22;11653;50.848;4.584;2023-04-15T13:21:22;19.60;53.40
22974;DHT22;11653;50.848;4.584;2023-04-15T13:23:48;19.20;54.00
22974;DHT22;11653;50.848;4.584;2023-04-15T13:26:16;19.30;55.30
22974;DHT22;11653;50.848;4.584;2023-04-15T13:28:41;19.30;54.00
22974;DHT22;11653;50.848;4.584;2023-04-15T13:31:07;19.30;56.20
22974;DHT22;11653;50.848;4.584;2023-04-15T13:33:33;19.10;54.50
22974;DHT22;11653;50.848;4.584;2023-04-15T13:35:58;19.00;53.20
22974;DHT22;11653;50.848;4.584;2023-04-15T13:38:24;18.70;55.70
22974;DHT22;11653;50.848;4.584;2023-04-15T13:40:50;18.70;57.80
22974;DHT22;11653;50.848;4.584;2023-04-15T13:43:16;18.90;58.60
22974;DHT22;11653;50.848;4.584;2023-04-15T13:45:42;19.10;59.30
22974;DHT22;11653;50.848;4.584;2023-04-15T13:48:08;19.20;57.70
22974;DHT22;11653;50.848;4.584;2023-04-15T13:50:33;19.20;56.60
22974;DHT22;11653;50.848;4.584;2023-04-15T13:52:59;19.30;56.70
22974;DHT22;11653;50.848;4.584;2023-04-15T13:55:25;19.40;57.60
22974;DHT22;11653;50.848;4.584;2023-04-15T13:57:51;19.60;57.20
22974;DHT22;11653;50.848;4.584;2023-04-15T14:00:17;19.70;57.00
22974;DHT22;11653;50.848;4.584;2023-04-15T14:02:42;19.60;58.00
22974;DHT22;11653;50.848;4.584;2023-04-15T14:05:08;19.60;58.80
22974;DHT22;11653;50.848;4.584;2023-04-15T14:07:34;19.60;59.60
22974;DHT22;11653;50.848;4.584;2023-04-15T14:10:00;19.70;59.00
22974;DHT22;11653;50.848;4.584;2023-04-15T14:12:26;19.80;58.90
22974;DHT22;11653;50.848;4.584;2023-04-15T14:14:51;19.80;57.80
22974;DHT22;11653;50.848;4.584;2023-04-15T14:17:17;19.90;57.20
22974;DHT22;11653;50.848;4.584;2023-04-15T14:19:43;19.60;55.70
22974;DHT22;11653;50.848;4.584;2023-04-15T14:22:08;19.40;56.20
22974;DHT22;11653;50.848;4.584;2023-04-15T14:24:34;19.40;54.00
22974;DHT22;11653;50.848;4.584;2023-04-15T14:27:00;19.30;54.10
22974;DHT22;11653;50.848;4.584;2023-04-15T14:29:26;19.10;53.60
22974;DHT22;11653;50.848;4.584;2023-04-15T14:31:52;18.80;53.30
22974;DHT22;11653;50.848;4.584;2023-04-15T14:34:18;18.70;55.50
22974;DHT22;11653;50.848;4.584;2023-04-15T14:36:46;18.40;56.80
22974;DHT22;11653;50.848;4.584;2023-04-15T14:39:12;18.40;57.10
22974;DHT22;11653;50.848;4.584;2023-04-15T14:41:38;18.50;58.00
22974;DHT22;11653;50.848;4.584;2023-04-15T14:44:04;18.40;60.30
22974;DHT22;11653;50.848;4.584;2023-04-15T14:46:30;18.40;59.90
22974;DHT22;11653;50.848;4.584;2023-04-15T14:48:56;18.40;58.90
22974;DHT22;11653;50.848;4.584;2023-04-15T14:51:22;18.20;58.70
22974;DHT22;11653;50.848;4.584;2023-04-15T14:53:47;18.10;59.90
22974;DHT22;11653;50.848;4.584;2023-04-15T14:56:13;18.00;62.50
22974;DHT22;11653;50.848;4.584;2023-04-15T14:58:39;17.90;61.90
22974;DHT22;11653;50.848;4.584;2023-04-15T15:01:04;17.90;62.10
22974;DHT22;11653;50.848;4.584;2023-04-15T15:03:30;18.00;61.90
22974;DHT22;11653;50.848;4.584;2023-04-15T15:05:56;17.80;59.60
22974;DHT22;11653;50.848;4.584;2023-04-15T15:08:22;17.70;58.50
22974;DHT22;11653;50.848;4.584;2023-04-15T15:10:48;17.60;60.80
22974;DHT22;11653;50.848;4.584;2023-04-15T15:13:14;17.60;61.30
22974;DHT22;11653;50.848;4.584;2023-04-15T15:15:40;17.40;63.10
22974;DHT22;11653;50.848;4.584;2023-04-15T15:18:06;17.50;63.40
22974;DHT22;11653;50.848;4.584;2023-04-15T15:20:31;17.60;63.40
22974;DHT22;11653;50.848;4.584;2023-04-15T15:22:59;17.50;63.90
22974;DHT22;11653;50.848;4.584;2023-04-15T15:25:25;17.40;65.60
22974;DHT22;11653;50.848;4.584;2023-04-15T15:27:50;17.30;65.10
22974;DHT22;11653;50.848;4.584;2023-04-15T15:30:16;17.40;65.00
22974;DHT22;11653;50.848;4.584;2023-04-15T15:32:42;17.40;66.80
22974;DHT22;11653;50.848;4.584;2023-04-15T15:35:08;17.60;65.40
22974;DHT22;11653;50.848;4.584;2023-04-15T15:37:35;17.50;65.20
22974;DHT22;11653;50.848;4.584;2023-04-15T15:40:03;17.20;67.20
22974;DHT22;11653;50.848;4.584;2023-04-15T15:42:30;17.20;68.20
22974;DHT22;11653;50.848;4.584;2023-04-15T15:44:56;17.30;69.10
22974;DHT22;11653;50.848;4.584;2023-04-15T15:47:22;17.30;69.10